sensor_id;sensor_type;location;lat;lon;timestamp;temperature;humidity
8862;DHT22;4799;50.996;4.754;2023-08-31T00:02:15;11.70;99.90
8862;DHT22;4799;50.996;4.754;2023-08-31T00:04:41;11.70;99.90
8862;DHT22;4799;50.996;4.754;2023-08-31T00:07:06;11.60;99.90
8862;DHT22;4799;50.996;4.754;2023-08-31T00:09:32;11.60;99.90
8862;DHT22;4799;50.996;4.754;2023-08-31T00:11:58;11.60;99.90
8862;DHT22;4799;50.996;4.754;2023-08-31T00:14:27;11.60;99.90
8862;DHT22;4799;50.996;4.754;2023-08-31T00:16:53;11.50;99.90
8862;DHT22;4799;50.996;4.754;2023-08-31T00:19:18;11.50;99.90
8862;DHT22;4799;50.996;4.754;2023-08-31T00:21:45;11.50;99.90
8862;DHT22;4799;50.996;4.754;2023-08-31T00:24:11;11.50;99.90
8862;DHT22;4799;50.996;4.754;2023-08-31T00:26:37;11.50;99.90
8862;DHT22;4799;50.996;4.754;2023-08-31T00:29:09;11.50;99.90
8862;DHT22;4799;50.996;4.754;2023-08-31T00:31:37;11.50;99.90
8862;DHT22;4799;50.996;4.754;2023-08-31T00:34:03;11.40;99.90
8862;DHT22;4799;50.996;4.754;2023-08-31T00:36:33;11.40;99.90
8862;DHT22;4799;50.996;4.754;2023-08-31T00:39:02;11.40;99.90
8862;DHT22;4799;50.996;4.754;2023-08-31T00:41:31;11.30;99.90
8862;DHT22;4799;50.996;4.754;2023-08-31T00:43:57;11.30;99.90
8862;DHT22;4799;50.996;4.754;2023-08-31T00:46:22;11.30;99.90
8862;DHT22;4799;50.996;4.754;2023-08-31T00:48:48;11.30;99.90
8862;DHT22;4799;50.996;4.754;2023-08-31T00:51:14;11.30;99.90
8862;DHT22;4799;50.996;4.754;2023-08-31T00:53:40;11.20;99.90
8862;DHT22;4799;50.996;4.754;2023-08-31T00:56:07;11.20;99.90
8862;DHT22;4799;50.996;4.754;2023-08-31T00:58:33;11.20;99.90
8862;DHT22;4799;50.996;4.754;2023-08-31T01:01:17;11.20;99.90
8862;DHT22;4799;50.996;4.754;2023-08-31T01:06:54;11.10;99.90
8862;DHT22;4799;50.996;4.754;2023-08-31T01:09:34;11.10;99.90
8862;DHT22;4799;50.996;4.754;2023-08-31T01:12:12;11.00;99.90
8862;DHT22;4799;50.996;4.754;2023-08-31T01:15:02;11.00;99.90
8862;DHT22;4799;50.996;4.754;2023-08-31T01:17:30;11.00;99.90
8862;DHT22;4799;50.996;4.754;2023-08-31T01:19:58;11.00;99.90
8862;DHT22;4799;50.996;4.754;2023-08-31T01:22:59;11.00;99.90
8862;DHT22;4799;50.996;4.754;2023-08-31T01:25:26;10.90;99.90
8862;DHT22;4799;50.996;4.754;2023-08-31T01:27:52;10.90;99.90
8862;DHT22;4799;50.996;4.754;2023-08-31T01:30:19;10.90;99.90
8862;DHT22;4799;50.996;4.754;2023-08-31T01:32:45;10.90;99.90
8862;DHT22;4799;50.996;4.754;2023-08-31T01:35:11;10.90;99.90
8862;DHT22;4799;50.996;4.754;2023-08-31T01:40:34;10.90;99.90
8862;DHT22;4799;50.996;4.754;2023-08-31T01:43:01;10.90;99.90
8862;DHT22;4799;50.996;4.754;2023-08-31T01:45:30;10.80;99.90
8862;DHT22;4799;50.996;4.754;2023-08-31T01:47:56;10.80;99.90
8862;DHT22;4799;50.996;4.754;2023-08-31T01:50:23;10.80;99.90
8862;DHT22;4799;50.996;4.754;2023-08-31T01:52:48;10.80;99.90
8862;DHT22;4799;50.996;4.754;2023-08-31T01:55:14;10.80;99.90
8862;DHT22;4799;50.996;4.754;2023-08-31T01:57:41;10.80;99.90
8862;DHT22;4799;50.996;4.754;2023-08-31T02:00:09;10.70;99.90
8862;DHT22;4799;50.996;4.754;2023-08-31T02:02:35;10.70;99.90
8862;DHT22;4799;50.996;4.754;2023-08-31T02:05:02;10.70;99.90
8862;DHT22;4799;50.996;4.754;2023-08-31T02:07:29;10.70;99.90
8862;DHT22;4799;50.996;4.754;2023-08-31T02:09:55;10.70;99.90
8862;DHT22;4799;50.996;4.754;2023-08-31T02:12:21;10.70;99.90
8862;DHT22;4799;50.996;4.754;2023-08-31T02:14:47;10.70;99.90
8862;DHT22;4799;50.996;4.754;2023-08-31T02:17:13;10.70;99.90
8862;DHT22;4799;50.996;4.754;2023-08-31T02:19:39;10.70;99.90
8862;DHT22;4799;50.996;4.754;2023-08-31T02:22:04;10.70;99.90
8862;DHT22;4799;50.996;4.754;2023-08-31T02:24:30;10.60;99.90
8862;DHT22;4799;50.996;4.754;2023-08-31T02:26:56;10.60;99.90
8862;DHT22;4799;50.996;4.754;2023-08-31T02:29:22;10.60;99.90
8862;DHT22;4799;50.996;4.754;2023-08-31T02:31:48;10.60;99.90
8862;DHT22;4799;50.996;4.754;2023-08-31T02:34:14;10.60;99.90
8862;DHT22;4799;50.996;4.754;2023-08-31T02:36:40;10.60;99.90
8862;DHT22;4799;50.996;4.754;2023-08-31T02:39:06;10.60;99.90
8862;DHT22;4799;50.996;4.754;2023-08-31T02:41:32;10.60;99.90
8862;DHT22;4799;50.996;4.754;2023-08-31T02:43:58;10.60;99.90
8862;DHT22;4799;50.996;4.754;2023-08-31T02:46:23;10.60;99.90
8862;DHT22;4799;50.996;4.754;2023-08-31T02:48:50;10.60;99.90
8862;DHT22;4799;50.996;4.754;2023-08-31T02:51:16;10.60;99.90
8862;DHT22;4799;50.996;4.754;2023-08-31T02:53:42;10.60;99.90
8862;DHT22;4799;50.996;4.754;2023-08-31T02:56:07;10.60;99.90
8862;DHT22;4799;50.996;4.754;2023-08-31T02:58:33;10.60;99.90
8862;DHT22;4799;50.996;4.754;2023-08-31T03:01:13;10.60;99.90
8862;DHT22;4799;50.996;4.754;2023-08-31T03:03:40;10.60;99.90
8862;DHT22;4799;50.996;4.754;2023-08-31T03:06:07;10.60;99.90
8862;DHT22;4799;50.996;4.754;2023-08-31T03:08:34;10.60;99.90
8862;DHT22;4799;50.996;4.754;2023-08-31T03:11:00;10.60;99.90
8862;DHT22;4799;50.996;4.754;2023-08-31T03:13:25;10.60;99.90
8862;DHT22;4799;50.996;4.754;2023-08-31T03:15:51;10.60;99.90
8862;DHT22;4799;50.996;4.754;2023-08-31T03:18:17;10.60;99.90
8862;DHT22;4799;50.996;4.754;2023-08-31T03:20:43;10.60;99.90
8862;DHT22;4799;50.996;4.754;2023-08-31T03:23:08;10.60;99.90
8862;DHT22;4799;50.996;4.754;2023-08-31T03:25:36;10.60;99.90
8862;DHT22;4799;50.996;4.754;2023-08-31T03:28:02;10.60;99.90
8862;DHT22;4799;50.996;4.754;2023-08-31T03:30:28;10.60;99.90
8862;DHT22;4799;50.996;4.754;2023-08-31T03:32:54;10.60;99.90
8862;DHT22;4799;50.996;4.754;2023-08-31T03:35:20;10.60;99.90
8862;DHT22;4799;50.996;4.754;2023-08-31T03:37:48;10.60;99.90
8862;DHT22;4799;50.996;4.754;2023-08-31T03:40:14;10.60;99.90
8862;DHT22;4799;50.996;4.754;2023-08-31T03:42:39;10.60;99.90
8862;DHT22;4799;50.996;4.754;2023-08-31T03:45:05;10.60;99.90
8862;DHT22;4799;50.996;4.754;2023-08-31T03:47:31;10.60;99.90
8862;DHT22;4799;50.996;4.754;2023-08-31T03:49:57;10.60;99.90
8862;DHT22;4799;50.996;4.754;2023-08-31T03:52:23;10.60;99.90
8862;DHT22;4799;50.996;4.754;2023-08-31T03:54:49;10.60;99.90
8862;DHT22;4799;50.996;4.754;2023-08-31T03:57:15;10.60;99.90
8862;DHT22;4799;50.996;4.754;2023-08-31T03:59:41;10.60;99.90
8862;DHT22;4799;50.996;4.754;2023-08-31T04:02:06;10.60;99.90
8862;DHT22;4799;50.996;4.754;2023-08-31T04:04:32;10.70;99.90
8862;DHT22;4799;50.996;4.754;2023-08-31T04:06:59;10.60;99.90
8862;DHT22;4799;50.996;4.754;2023-08-31T04:09:25;10.60;99.90
8862;DHT22;4799;50.996;4.754;2023-08-31T04:11:51;10.60;99.90
8862;DHT22;4799;50.996;4.754;2023-08-31T04:14:17;10.60;99.90
8862;DHT22;4799;50.996;4.754;2023-08-31T04:16:44;10.60;99.90
8862;DHT22;4799;50.996;4.754;2023-08-31T04:19:10;10.60;99.90
8862;DHT22;4799;50.996;4.754;2023-08-31T04:21:36;10.60;99.90
8862;DHT22;4799;50.996;4.754;2023-08-31T04:24:03;10.70;99.90
8862;DHT22;4799;50.996;4.754;2023-08-31T04:26:29;10.70;99.90
8862;DHT22;4799;50.996;4.754;2023-08-31T04:28:55;10.60;99.90
8862;DHT22;4799;50.996;4.754;2023-08-31T04:31:21;10.60;99.90
8862;DHT22;4799;50.996;4.754;2023-08-31T04:33:47;10.70;99.90
8862;DHT22;4799;50.996;4.754;2023-08-31T04:36:14;10.70;99.90
8862;DHT22;4799;50.996;4.754;2023-08-31T04:38:39;10.80;99.90
8862;DHT22;4799;50.996;4.754;2023-08-31T04:41:05;10.80;99.90
8862;DHT22;4799;50.996;4.754;2023-08-31T04:43:31;10.80;99.90
8862;DHT22;4799;50.996;4.754;2023-08-31T04:45:57;10.80;99.90
8862;DHT22;4799;50.996;4.754;2023-08-31T04:48:23;10.80;99.90
8862;DHT22;4799;50.996;4.754;2023-08-31T04:50:48;10.80;99.90
8862;DHT22;4799;50.996;4.754;2023-08-31T04:53:14;10.80;99.90
8862;DHT22;4799;50.996;4.754;2023-08-31T04:55:40;10.80;99.90
8862;DHT22;4799;50.996;4.754;2023-08-31T04:58:06;10.80;99.90
8862;DHT22;4799;50.996;4.754;2023-08-31T05:00:32;10.80;99.90
8862;DHT22;4799;50.996;4.754;2023-08-31T05:02:57;10.80;99.90
8862;DHT22;4799;50.996;4.754;2023-08-31T05:05:23;10.80;99.90
8862;DHT22;4799;50.996;4.754;2023-08-31T05:07:49;10.80;99.90
8862;DHT22;4799;50.996;4.754;2023-08-31T05:10:15;10.80;99.90
8862;DHT22;4799;50.996;4.754;2023-08-31T05:12:42;10.80;99.90
8862;DHT22;4799;50.996;4.754;2023-08-31T05:15:08;10.80;99.90
8862;DHT22;4799;50.996;4.754;2023-08-31T05:17:35;10.80;99.90
8862;DHT22;4799;50.996;4.754;2023-08-31T05:20:00;10.80;99.90
8862;DHT22;4799;50.996;4.754;2023-08-31T05:22:26;10.80;99.90
8862;DHT22;4799;50.996;4.754;2023-08-31T05:24:52;10.90;99.90
8862;DHT22;4799;50.996;4.754;2023-08-31T05:27:18;10.90;99.90
8862;DHT22;4799;50.996;4.754;2023-08-31T05:29:43;10.90;99.90
8862;DHT22;4799;50.996;4.754;2023-08-31T05:32:09;10.90;99.90
8862;DHT22;4799;50.996;4.754;2023-08-31T05:34:35;10.90;99.90
8862;DHT22;4799;50.996;4.754;2023-08-31T05:37:04;11.00;99.90
8862;DHT22;4799;50.996;4.754;2023-08-31T05:39:33;11.00;99.90
8862;DHT22;4799;50.996;4.754;2023-08-31T05:41:58;11.10;99.90
8862;DHT22;4799;50.996;4.754;2023-08-31T05:44:24;11.10;99.90
8862;DHT22;4799;50.996;4.754;2023-08-31T05:46:50;11.10;99.90
8862;DHT22;4799;50.996;4.754;2023-08-31T05:49:15;11.20;99.90
8862;DHT22;4799;50.996;4.754;2023-08-31T05:51:41;11.20;99.90
8862;DHT22;4799;50.996;4.754;2023-08-31T05:54:07;11.20;99.90
8862;DHT22;4799;50.996;4.754;2023-08-31T05:56:38;11.30;99.90
8862;DHT22;4799;50.996;4.754;2023-08-31T05:59:05;11.30;99.90
8862;DHT22;4799;50.996;4.754;2023-08-31T06:01:32;11.40;99.90
8862;DHT22;4799;50.996;4.754;2023-08-31T06:03:57;11.40;99.90
8862;DHT22;4799;50.996;4.754;2023-08-31T06:06:23;11.50;99.90
8862;DHT22;4799;50.996;4.754;2023-08-31T06:08:49;11.60;99.90
8862;DHT22;4799;50.996;4.754;2023-08-31T06:11:15;11.60;99.90
8862;DHT22;4799;50.996;4.754;2023-08-31T06:13:41;11.70;99.90
8862;DHT22;4799;50.996;4.754;2023-08-31T06:16:07;11.70;99.90
8862;DHT22;4799;50.996;4.754;2023-08-31T06:18:33;11.80;99.90
8862;DHT22;4799;50.996;4.754;2023-08-31T06:20:59;11.90;99.90
8862;DHT22;4799;50.996;4.754;2023-08-31T06:23:24;11.90;99.90
8862;DHT22;4799;50.996;4.754;2023-08-31T06:25:50;12.00;99.90
8862;DHT22;4799;50.996;4.754;2023-08-31T06:28:16;12.10;99.90
8862;DHT22;4799;50.996;4.754;2023-08-31T06:30:42;12.10;99.90
8862;DHT22;4799;50.996;4.754;2023-08-31T06:33:13;12.20;99.90
8862;DHT22;4799;50.996;4.754;2023-08-31T06:35:40;12.30;99.90
8862;DHT22;4799;50.996;4.754;2023-08-31T06:38:05;12.30;99.90
8862;DHT22;4799;50.996;4.754;2023-08-31T06:40:31;12.40;99.90
8862;DHT22;4799;50.996;4.754;2023-08-31T06:42:57;12.50;99.90
8862;DHT22;4799;50.996;4.754;2023-08-31T06:45:23;12.50;99.90
8862;DHT22;4799;50.996;4.754;2023-08-31T06:47:48;12.70;99.90
8862;DHT22;4799;50.996;4.754;2023-08-31T06:50:14;12.80;99.90
8862;DHT22;4799;50.996;4.754;2023-08-31T06:52:40;12.90;99.90
8862;DHT22;4799;50.996;4.754;2023-08-31T06:55:12;13.00;99.90
8862;DHT22;4799;50.996;4.754;2023-08-31T06:57:38;13.10;99.90
8862;DHT22;4799;50.996;4.754;2023-08-31T07:00:04;13.10;99.90
8862;DHT22;4799;50.996;4.754;2023-08-31T07:02:32;13.20;99.90
8862;DHT22;4799;50.996;4.754;2023-08-31T07:05:00;13.30;99.90
8862;DHT22;4799;50.996;4.754;2023-08-31T07:07:25;13.30;99.90
8862;DHT22;4799;50.996;4.754;2023-08-31T07:09:51;13.40;99.90
8862;DHT22;4799;50.996;4.754;2023-08-31T07:12:17;13.50;99.90
8862;DHT22;4799;50.996;4.754;2023-08-31T07:14:43;13.50;99.90
8862;DHT22;4799;50.996;4.754;2023-08-31T07:17:09;13.60;99.90
8862;DHT22;4799;50.996;4.754;2023-08-31T07:19:38;13.70;99.90
8862;DHT22;4799;50.996;4.754;2023-08-31T07:22:04;13.70;99.90
8862;DHT22;4799;50.996;4.754;2023-08-31T07:24:31;13.80;99.90
8862;DHT22;4799;50.996;4.754;2023-08-31T07:26:57;13.80;99.90
8862;DHT22;4799;50.996;4.754;2023-08-31T07:29:23;13.90;99.90
8862;DHT22;4799;50.996;4.754;2023-08-31T07:31:49;13.90;99.90
8862;DHT22;4799;50.996;4.754;2023-08-31T07:34:14;14.00;99.90
8862;DHT22;4799;50.996;4.754;2023-08-31T07:36:40;14.10;99.90
8862;DHT22;4799;50.996;4.754;2023-08-31T07:39:06;14.10;99.90
8862;DHT22;4799;50.996;4.754;2023-08-31T07:41:32;14.20;99.90
8862;DHT22;4799;50.996;4.754;2023-08-31T07:43:58;14.30;99.90
8862;DHT22;4799;50.996;4.754;2023-08-31T07:46:24;14.30;99.90
8862;DHT22;4799;50.996;4.754;2023-08-31T07:48:50;14.30;99.90
8862;DHT22;4799;50.996;4.754;2023-08-31T07:51:16;14.40;99.90
8862;DHT22;4799;50.996;4.754;2023-08-31T07:53:42;14.50;99.90
8862;DHT22;4799;50.996;4.754;2023-08-31T07:56:08;14.50;99.90
8862;DHT22;4799;50.996;4.754;2023-08-31T07:58:33;14.60;99.90
8862;DHT22;4799;50.996;4.754;2023-08-31T08:00:59;14.60;99.90
8862;DHT22;4799;50.996;4.754;2023-08-31T08:03:25;14.70;99.90
8862;DHT22;4799;50.996;4.754;2023-08-31T08:05:51;14.70;99.90
8862;DHT22;4799;50.996;4.754;2023-08-31T08:08:17;14.80;99.90
8862;DHT22;4799;50.996;4.754;2023-08-31T08:10:43;14.90;99.90
8862;DHT22;4799;50.996;4.754;2023-08-31T08:13:09;14.90;99.90
8862;DHT22;4799;50.996;4.754;2023-08-31T08:15:35;15.00;99.90
8862;DHT22;4799;50.996;4.754;2023-08-31T08:18:01;15.10;99.90
8862;DHT22;4799;50.996;4.754;2023-08-31T08:20:27;15.20;99.90
8862;DHT22;4799;50.996;4.754;2023-08-31T08:22:54;15.20;99.90
8862;DHT22;4799;50.996;4.754;2023-08-31T08:25:21;15.30;99.90
8862;DHT22;4799;50.996;4.754;2023-08-31T08:27:47;15.40;99.90
8862;DHT22;4799;50.996;4.754;2023-08-31T08:30:14;15.40;99.90
8862;DHT22;4799;50.996;4.754;2023-08-31T08:32:41;15.40;99.90
8862;DHT22;4799;50.996;4.754;2023-08-31T08:35:07;15.50;99.90
8862;DHT22;4799;50.996;4.754;2023-08-31T08:37:33;15.60;99.90
8862;DHT22;4799;50.996;4.754;2023-08-31T08:39:59;15.60;99.90
8862;DHT22;4799;50.996;4.754;2023-08-31T08:42:26;15.70;99.90
8862;DHT22;4799;50.996;4.754;2023-08-31T08:44:52;15.70;99.90
8862;DHT22;4799;50.996;4.754;2023-08-31T08:47:18;15.80;99.90
8862;DHT22;4799;50.996;4.754;2023-08-31T08:49:44;15.90;99.90
8862;DHT22;4799;50.996;4.754;2023-08-31T08:52:10;15.90;99.90
8862;DHT22;4799;50.996;4.754;2023-08-31T08:54:37;16.00;99.90
8862;DHT22;4799;50.996;4.754;2023-08-31T08:57:04;16.10;99.90
8862;DHT22;4799;50.996;4.754;2023-08-31T08:59:31;16.10;99.90
8862;DHT22;4799;50.996;4.754;2023-08-31T09:01:57;16.20;99.90
8862;DHT22;4799;50.996;4.754;2023-08-31T09:04:23;16.30;99.90
8862;DHT22;4799;50.996;4.754;2023-08-31T09:06:50;16.30;99.90
8862;DHT22;4799;50.996;4.754;2023-08-31T09:09:16;16.40;99.90
8862;DHT22;4799;50.996;4.754;2023-08-31T09:11:43;16.50;99.90
8862;DHT22;4799;50.996;4.754;2023-08-31T09:14:16;16.70;99.90
8862;DHT22;4799;50.996;4.754;2023-08-31T09:16:46;16.70;99.90
8862;DHT22;4799;50.996;4.754;2023-08-31T09:19:24;16.90;99.90
8862;DHT22;4799;50.996;4.754;2023-08-31T09:21:51;16.90;99.90
8862;DHT22;4799;50.996;4.754;2023-08-31T09:24:18;16.90;99.90
8862;DHT22;4799;50.996;4.754;2023-08-31T09:26:51;16.90;99.90
8862;DHT22;4799;50.996;4.754;2023-08-31T09:29:17;16.90;99.90
8862;DHT22;4799;50.996;4.754;2023-08-31T09:31:43;16.90;99.90
8862;DHT22;4799;50.996;4.754;2023-08-31T09:34:10;17.00;99.90
8862;DHT22;4799;50.996;4.754;2023-08-31T09:36:39;17.00;99.90
8862;DHT22;4799;50.996;4.754;2023-08-31T09:39:09;17.10;99.90
8862;DHT22;4799;50.996;4.754;2023-08-31T09:41:35;17.20;99.90
8862;DHT22;4799;50.996;4.754;2023-08-31T09:44:18;17.30;99.90
8862;DHT22;4799;50.996;4.754;2023-08-31T09:46:45;17.40;99.90
8862;DHT22;4799;50.996;4.754;2023-08-31T09:49:13;17.50;99.90
8862;DHT22;4799;50.996;4.754;2023-08-31T09:51:43;17.60;99.90
8862;DHT22;4799;50.996;4.754;2023-08-31T09:54:13;17.70;99.90
8862;DHT22;4799;50.996;4.754;2023-08-31T09:56:44;17.80;99.90
8862;DHT22;4799;50.996;4.754;2023-08-31T09:59:11;17.90;99.90
8862;DHT22;4799;50.996;4.754;2023-08-31T10:01:41;17.90;99.90
8862;DHT22;4799;50.996;4.754;2023-08-31T10:04:08;18.10;99.90
8862;DHT22;4799;50.996;4.754;2023-08-31T10:06:39;18.30;99.90
8862;DHT22;4799;50.996;4.754;2023-08-31T10:09:05;18.40;99.90
8862;DHT22;4799;50.996;4.754;2023-08-31T10:11:32;18.70;99.90
8862;DHT22;4799;50.996;4.754;2023-08-31T10:13:58;18.80;99.90
8862;DHT22;4799;50.996;4.754;2023-08-31T10:16:28;18.80;99.90
8862;DHT22;4799;50.996;4.754;2023-08-31T10:18:55;18.80;99.90
8862;DHT22;4799;50.996;4.754;2023-08-31T10:21:21;18.90;99.90
8862;DHT22;4799;50.996;4.754;2023-08-31T10:23:48;19.00;99.90
8862;DHT22;4799;50.996;4.754;2023-08-31T10:26:24;19.20;99.90
8862;DHT22;4799;50.996;4.754;2023-08-31T10:28:51;19.20;99.90
8862;DHT22;4799;50.996;4.754;2023-08-31T10:31:18;19.20;99.90
8862;DHT22;4799;50.996;4.754;2023-08-31T10:36:21;19.30;99.90
8862;DHT22;4799;50.996;4.754;2023-08-31T10:41:35;19.50;99.90
8862;DHT22;4799;50.996;4.754;2023-08-31T10:44:18;19.50;99.90
8862;DHT22;4799;50.996;4.754;2023-08-31T10:46:45;19.60;99.90
8862;DHT22;4799;50.996;4.754;2023-08-31T10:51:38;19.90;99.90
8862;DHT22;4799;50.996;4.754;2023-08-31T10:54:09;20.20;99.90
8862;DHT22;4799;50.996;4.754;2023-08-31T10:57:01;20.30;99.90
8862;DHT22;4799;50.996;4.754;2023-08-31T10:59:52;20.60;99.90
8862;DHT22;4799;50.996;4.754;2023-08-31T11:05:05;20.70;99.90
8862;DHT22;4799;50.996;4.754;2023-08-31T11:07:31;20.80;99.90
8862;DHT22;4799;50.996;4.754;2023-08-31T11:12:34;21.00;99.90
8862;DHT22;4799;50.996;4.754;2023-08-31T11:14:59;21.00;99.90
8862;DHT22;4799;50.996;4.754;2023-08-31T11:17:25;21.10;99.90
8862;DHT22;4799;50.996;4.754;2023-08-31T11:19:51;21.10;99.90
8862;DHT22;4799;50.996;4.754;2023-08-31T11:22:17;21.10;99.90
8862;DHT22;4799;50.996;4.754;2023-08-31T11:24:43;21.00;99.90
8862;DHT22;4799;50.996;4.754;2023-08-31T11:27:10;20.90;99.90
8862;DHT22;4799;50.996;4.754;2023-08-31T11:29:53;20.90;99.90
8862;DHT22;4799;50.996;4.754;2023-08-31T11:32:22;20.90;99.90
8862;DHT22;4799;50.996;4.754;2023-08-31T11:34:48;20.80;99.90
8862;DHT22;4799;50.996;4.754;2023-08-31T11:37:15;20.90;99.90
8862;DHT22;4799;50.996;4.754;2023-08-31T11:39:52;20.90;99.90
8862;DHT22;4799;50.996;4.754;2023-08-31T11:42:21;20.90;99.90
8862;DHT22;4799;50.996;4.754;2023-08-31T11:44:48;21.00;99.90
8862;DHT22;4799;50.996;4.754;2023-08-31T11:47:15;21.10;99.90
8862;DHT22;4799;50.996;4.754;2023-08-31T11:49:51;21.20;99.90
8862;DHT22;4799;50.996;4.754;2023-08-31T11:52:20;21.20;99.90
8862;DHT22;4799;50.996;4.754;2023-08-31T11:54:52;21.20;99.90
8862;DHT22;4799;50.996;4.754;2023-08-31T11:57:19;21.30;99.90
8862;DHT22;4799;50.996;4.754;2023-08-31T11:59:50;21.40;99.90
8862;DHT22;4799;50.996;4.754;2023-08-31T12:02:19;21.40;99.90
8862;DHT22;4799;50.996;4.754;2023-08-31T12:04:46;21.50;99.90
8862;DHT22;4799;50.996;4.754;2023-08-31T12:07:16;21.50;99.90
8862;DHT22;4799;50.996;4.754;2023-08-31T12:09:42;21.40;99.90
8862;DHT22;4799;50.996;4.754;2023-08-31T12:12:14;21.40;99.90
8862;DHT22;4799;50.996;4.754;2023-08-31T12:14:42;21.50;99.90
8862;DHT22;4799;50.996;4.754;2023-08-31T12:17:09;21.50;99.90
8862;DHT22;4799;50.996;4.754;2023-08-31T12:19:38;21.40;99.90
8862;DHT22;4799;50.996;4.754;2023-08-31T12:22:07;21.30;99.90
8862;DHT22;4799;50.996;4.754;2023-08-31T12:24:41;21.20;99.90
8862;DHT22;4799;50.996;4.754;2023-08-31T12:27:08;21.10;99.90
8862;DHT22;4799;50.996;4.754;2023-08-31T12:29:35;21.10;99.90
8862;DHT22;4799;50.996;4.754;2023-08-31T12:32:01;21.00;99.90
8862;DHT22;4799;50.996;4.754;2023-08-31T12:34:31;20.90;99.90
8862;DHT22;4799;50.996;4.754;2023-08-31T12:36:57;21.00;99.90
8862;DHT22;4799;50.996;4.754;2023-08-31T12:39:28;21.10;99.90
8862;DHT22;4799;50.996;4.754;2023-08-31T12:41:54;21.10;99.90
8862;DHT22;4799;50.996;4.754;2023-08-31T12:44:20;21.20;99.90
8862;DHT22;4799;50.996;4.754;2023-08-31T12:46:45;21.10;99.90
8862;DHT22;4799;50.996;4.754;2023-08-31T12:49:11;21.10;99.90
8862;DHT22;4799;50.996;4.754;2023-08-31T12:51:37;21.10;99.90
8862;DHT22;4799;50.996;4.754;2023-08-31T12:59:59;21.20;99.90
8862;DHT22;4799;50.996;4.754;2023-08-31T13:02:24;21.40;99.90
8862;DHT22;4799;50.996;4.754;2023-08-31T13:04:50;21.50;99.90
8862;DHT22;4799;50.996;4.754;2023-08-31T13:07:16;21.50;99.90
8862;DHT22;4799;50.996;4.754;2023-08-31T13:09:42;21.50;99.90
8862;DHT22;4799;50.996;4.754;2023-08-31T13:12:08;21.50;99.90
8862;DHT22;4799;50.996;4.754;2023-08-31T13:19:44;21.70;99.90
8862;DHT22;4799;50.996;4.754;2023-08-31T13:22:10;21.80;99.90
8862;DHT22;4799;50.996;4.754;2023-08-31T13:24:40;21.90;99.90
8862;DHT22;4799;50.996;4.754;2023-08-31T13:27:06;22.00;99.90
8862;DHT22;4799;50.996;4.754;2023-08-31T13:29:32;22.00;99.90
8862;DHT22;4799;50.996;4.754;2023-08-31T13:31:58;22.10;99.90
8862;DHT22;4799;50.996;4.754;2023-08-31T13:34:23;22.20;99.90
8862;DHT22;4799;50.996;4.754;2023-08-31T13:36:49;22.20;99.90
8862;DHT22;4799;50.996;4.754;2023-08-31T13:39:15;22.30;99.60
8862;DHT22;4799;50.996;4.754;2023-08-31T13:41:41;22.30;98.70
8862;DHT22;4799;50.996;4.754;2023-08-31T13:44:07;22.30;98.90
8862;DHT22;4799;50.996;4.754;2023-08-31T13:46:33;22.40;98.20
8862;DHT22;4799;50.996;4.754;2023-08-31T13:48:59;22.50;98.80
8862;DHT22;4799;50.996;4.754;2023-08-31T13:51:27;22.60;98.10
8862;DHT22;4799;50.996;4.754;2023-08-31T13:53:53;22.70;97.10
8862;DHT22;4799;50.996;4.754;2023-08-31T13:56:19;22.90;97.30
8862;DHT22;4799;50.996;4.754;2023-08-31T13:58:48;23.10;97.20
8862;DHT22;4799;50.996;4.754;2023-08-31T14:01:14;23.30;96.80
8862;DHT22;4799;50.996;4.754;2023-08-31T14:03:40;23.50;95.00
8862;DHT22;4799;50.996;4.754;2023-08-31T14:06:06;23.70;94.70
8862;DHT22;4799;50.996;4.754;2023-08-31T14:08:32;23.90;94.20
8862;DHT22;4799;50.996;4.754;2023-08-31T14:10:58;24.00;92.70
8862;DHT22;4799;50.996;4.754;2023-08-31T14:13:24;24.10;92.10
8862;DHT22;4799;50.996;4.754;2023-08-31T14:15:49;24.20;90.60
8862;DHT22;4799;50.996;4.754;2023-08-31T14:18:15;24.10;89.40
8862;DHT22;4799;50.996;4.754;2023-08-31T14:20:41;24.10;87.30
8862;DHT22;4799;50.996;4.754;2023-08-31T14:23:08;24.10;87.00
8862;DHT22;4799;50.996;4.754;2023-08-31T14:25:37;24.10;86.60
8862;DHT22;4799;50.996;4.754;2023-08-31T14:28:04;24.10;85.80
8862;DHT22;4799;50.996;4.754;2023-08-31T14:30:31;24.00;84.30
8862;DHT22;4799;50.996;4.754;2023-08-31T14:32:56;24.00;84.80
8862;DHT22;4799;50.996;4.754;2023-08-31T14:35:22;24.10;87.10
8862;DHT22;4799;50.996;4.754;2023-08-31T14:37:48;24.20;86.40
8862;DHT22;4799;50.996;4.754;2023-08-31T14:40:14;24.10;83.30
8862;DHT22;4799;50.996;4.754;2023-08-31T14:42:40;24.10;82.80
8862;DHT22;4799;50.996;4.754;2023-08-31T14:45:06;24.10;84.10
8862;DHT22;4799;50.996;4.754;2023-08-31T14:47:32;24.10;84.40
8862;DHT22;4799;50.996;4.754;2023-08-31T14:49:58;24.00;83.50
8862;DHT22;4799;50.996;4.754;2023-08-31T14:52:24;23.90;83.10
8862;DHT22;4799;50.996;4.754;2023-08-31T14:54:50;23.90;84.60
8862;DHT22;4799;50.996;4.754;2023-08-31T14:57:16;23.90;84.50
8862;DHT22;4799;50.996;4.754;2023-08-31T14:59:41;23.90;84.60
8862;DHT22;4799;50.996;4.754;2023-08-31T15:02:07;23.90;84.50
8862;DHT22;4799;50.996;4.754;2023-08-31T15:04:33;23.80;82.80
8862;DHT22;4799;50.996;4.754;2023-08-31T15:06:59;23.70;82.40
8862;DHT22;4799;50.996;4.754;2023-08-31T15:09:26;23.70;84.30
8862;DHT22;4799;50.996;4.754;2023-08-31T15:11:52;23.70;83.60
8862;DHT22;4799;50.996;4.754;2023-08-31T15:14:18;23.60;83.40
8862;DHT22;4799;50.996;4.754;2023-08-31T15:16:43;23.70;84.60
8862;DHT22;4799;50.996;4.754;2023-08-31T15:19:09;23.70;84.30
8862;DHT22;4799;50.996;4.754;2023-08-31T15:21:35;23.70;85.10
8862;DHT22;4799;50.996;4.754;2023-08-31T15:24:01;23.70;85.50
8862;DHT22;4799;50.996;4.754;2023-08-31T15:26:28;23.70;86.30
8862;DHT22;4799;50.996;4.754;2023-08-31T15:28:53;23.60;86.00
8862;DHT22;4799;50.996;4.754;2023-08-31T15:31:19;23.50;87.60
8862;DHT22;4799;50.996;4.754;2023-08-31T15:33:45;23.50;88.00
8862;DHT22;4799;50.996;4.754;2023-08-31T15:36:11;23.30;89.10
8862;DHT22;4799;50.996;4.754;2023-08-31T15:38:37;23.20;90.10
8862;DHT22;4799;50.996;4.754;2023-08-31T15:41:05;23.10;90.50
8862;DHT22;4799;50.996;4.754;2023-08-31T15:43:32;23.10;91.20
8862;DHT22;4799;50.996;4.754;2023-08-31T15:46:00;23.00;91.20
8862;DHT22;4799;50.996;4.754;2023-08-31T15:48:26;23.10;91.50
8862;DHT22;4799;50.996;4.754;2023-08-31T15:50:54;23.10;91.60
8862;DHT22;4799;50.996;4.754;2023-08-31T15:53:20;23.10;91.30
8862;DHT22;4799;50.996;4.754;2023-08-31T15:55:47;23.00;91.70
8862;DHT22;4799;50.996;4.754;2023-08-31T15:58:13;23.00;92.10
8862;DHT22;4799;50.996;4.754;2023-08-31T16:00:39;22.90;92.10
8862;DHT22;4799;50.996;4.754;2023-08-31T16:03:05;22.90;92.30
8862;DHT22;4799;50.996;4.754;2023-08-31T16:05:32;22.90;92.30
8862;DHT22;4799;50.996;4.754;2023-08-31T16:08:01;22.90;92.40
8862;DHT22;4799;50.996;4.754;2023-08-31T16:10:28;22.90;92.60
8862;DHT22;4799;50.996;4.754;2023-08-31T16:12:55;22.90;92.30
8862;DHT22;4799;50.996;4.754;2023-08-31T16:15:21;22.70;91.40
8862;DHT22;4799;50.996;4.754;2023-08-31T16:17:48;22.60;92.00
8862;DHT22;4799;50.996;4.754;2023-08-31T16:20:13;22.50;92.10
8862;DHT22;4799;50.996;4.754;2023-08-31T16:22:39;22.50;92.00
8862;DHT22;4799;50.996;4.754;2023-08-31T16:25:06;22.40;92.30
8862;DHT22;4799;50.996;4.754;2023-08-31T16:27:32;22.20;92.40
8862;DHT22;4799;50.996;4.754;2023-08-31T16:29:58;22.10;92.80
8862;DHT22;4799;50.996;4.754;2023-08-31T16:32:24;22.10;93.20